createdAt,value
2019-04-27T00:03:13.323Z,13.13
2019-04-27T00:08:39.173Z,17.33
2019-04-27T00:13:44.504Z,13.70
2019-04-27T00:18:54.847Z,16.77
2019-04-27T00:23:57.035Z,13.93
2019-04-27T00:29:01.574Z,15.33
2019-04-27T00:34:06.172Z,15.57
2019-04-27T00:39:31.002Z,17.10
2019-04-27T00:44:35.713Z,12.03
2019-04-27T00:49:40.361Z,17.07
2019-04-27T00:54:44.834Z,9.57
2019-04-27T00:59:54.058Z,10.93
2019-04-27T01:04:58.859Z,12.10
2019-04-27T01:10:05.312Z,15.10
2019-04-27T01:15:10.330Z,9.43
2019-04-27T01:20:15.001Z,11.23
2019-04-27T01:25:21.791Z,6.23
2019-04-27T01:30:30.581Z,6.47
2019-04-27T01:35:34.995Z,6.33
2019-04-27T01:40:39.508Z,10.15
2019-04-27T01:45:44.760Z,8.40
2019-04-27T01:50:49.428Z,11.87
2019-04-27T01:55:53.971Z,6.20
2019-04-27T02:01:03.198Z,7.13
2019-04-27T02:06:09.191Z,6.67
2019-04-27T02:11:13.840Z,9.65
2019-04-27T02:16:18.813Z,5.50
2019-04-27T02:21:23.687Z,8.50
2019-04-27T02:26:29.922Z,9.73
2019-04-27T02:31:45.252Z,7.77
2019-04-27T02:36:50.301Z,7.83
2019-04-27T02:41:56.619Z,11.20
2019-04-27T02:47:01.208Z,9.30
2019-04-27T02:52:09.526Z,7.53
2019-04-27T02:57:14.231Z,11.80
2019-04-27T03:02:20.365Z,9.30
2019-04-27T03:07:25.004Z,7.37
2019-04-27T03:12:31.167Z,10.80
2019-04-27T03:17:39.598Z,10.17
2019-04-27T03:22:45.150Z,8.37
2019-04-27T03:27:51.304Z,9.60
2019-04-27T03:32:57.575Z,9.97
2019-04-27T03:38:02.702Z,12.60
2019-04-27T03:43:09.931Z,10.83
2019-04-27T03:48:15.617Z,10.83
2019-04-27T03:53:23.297Z,11.03
2019-04-27T03:58:35.714Z,10.73
2019-04-27T04:03:40.435Z,10.80
2019-04-27T04:08:45.041Z,10.50
2019-04-27T04:13:51.249Z,11.97
2019-04-27T04:18:57.414Z,10.93
2019-04-27T04:24:02.154Z,9.63
2019-04-27T04:29:06.751Z,10.37
2019-04-27T04:34:12.192Z,13.57
2019-04-27T04:39:19.588Z,11.00
2019-04-27T04:44:31.140Z,11.05
2019-04-27T04:49:35.594Z,13.93
2019-04-27T04:54:40.883Z,7.73
2019-04-27T04:59:45.583Z,10.20
2019-04-27T05:04:50.018Z,12.40
2019-04-27T05:09:54.483Z,13.97
2019-04-27T05:14:59.194Z,13.50
2019-04-27T05:20:06.881Z,13.08
2019-04-27T05:25:11.405Z,12.33
2019-04-27T05:30:15.865Z,15.13
2019-04-27T05:35:20.465Z,15.53
2019-04-27T05:40:24.937Z,16.17
2019-04-27T05:45:36.885Z,15.33
2019-04-27T05:50:45.596Z,10.90
2019-04-27T05:55:49.386Z,17.43
2019-04-27T06:00:54.970Z,16.30
2019-04-27T06:06:01.713Z,19.37
2019-04-27T06:11:05.731Z,12.20
2019-04-27T06:16:10.274Z,16.93
2019-04-27T06:21:14.718Z,17.33
2019-04-27T06:26:20.137Z,17.57
2019-04-27T06:31:24.921Z,17.87
2019-04-27T06:36:29.424Z,9.37
2019-04-27T06:41:34.193Z,14.67
2019-04-27T06:46:40.337Z,11.40
2019-04-27T06:51:45.153Z,14.33
2019-04-27T06:56:50.140Z,13.77
2019-04-27T07:01:55.624Z,9.10
2019-04-27T07:07:01.671Z,10.03
2019-04-27T07:12:06.545Z,11.97
2019-04-27T07:17:11.079Z,10.40
2019-04-27T07:22:15.646Z,8.67
2019-04-27T07:27:21.310Z,11.20
2019-04-27T07:32:26.052Z,11.20
2019-04-27T07:37:30.744Z,10.23
2019-04-27T07:42:35.307Z,8.83
2019-04-27T07:47:41.496Z,20.00
2019-04-27T07:52:48.602Z,12.97
2019-04-27T07:57:54.342Z,11.77
2019-04-27T08:02:58.887Z,18.57
2019-04-27T08:08:03.388Z,11.30
2019-04-27T08:13:09.494Z,16.43
2019-04-27T08:18:14.406Z,6.53
2019-04-27T08:23:19.555Z,6.73
2019-04-27T08:28:34.797Z,5.13
2019-04-27T08:33:39.219Z,6.20
2019-04-27T08:38:43.713Z,4.73
2019-04-27T08:43:48.813Z,4.30
2019-04-27T08:48:54.385Z,2.63
2019-04-27T08:53:59.178Z,2.17
2019-04-27T08:59:03.806Z,3.37
2019-04-27T09:04:09.239Z,3.65
2019-04-27T09:09:32.256Z,3.63
2019-04-27T09:14:44.302Z,3.40
2019-04-27T09:20:02.293Z,4.07
2019-04-27T09:25:07.189Z,3.10
2019-04-27T09:30:12.057Z,5.00
2019-04-27T09:35:16.707Z,5.83
2019-04-27T09:40:22.141Z,7.57
2019-04-27T09:45:27.195Z,8.93
2019-04-27T09:50:32.535Z,10.27
2019-04-27T09:55:38.258Z,11.87
2019-04-27T10:00:42.906Z,11.73
2019-04-27T10:05:47.404Z,10.60
2019-04-27T10:10:52.010Z,11.83
2019-04-27T10:15:56.582Z,11.17
2019-04-27T10:21:02.210Z,13.50
2019-04-27T10:26:08.057Z,15.10
2019-04-27T10:31:12.644Z,14.83
2019-04-27T10:36:18.911Z,12.23
2019-04-27T10:41:23.418Z,12.63
2019-04-27T10:46:27.933Z,13.27
2019-04-27T10:51:32.534Z,13.43
2019-04-27T10:56:37.036Z,14.37
2019-04-27T11:01:41.925Z,13.27
2019-04-27T11:06:54.294Z,13.90
2019-04-27T11:11:59.940Z,11.53
2019-04-27T11:17:06.495Z,12.90
2019-04-27T11:22:10.923Z,12.00
2019-04-27T11:27:15.377Z,12.13
2019-04-27T11:32:19.909Z,12.17
2019-04-27T11:37:26.080Z,9.70
2019-04-27T11:42:30.627Z,13.67
2019-04-27T11:47:36.532Z,13.37
2019-04-27T11:52:41.278Z,10.73
2019-04-27T11:57:47.048Z,9.83
2019-04-27T12:02:51.809Z,11.73
2019-04-27T12:07:56.267Z,8.90
2019-04-27T12:13:00.723Z,8.77
2019-04-27T12:18:08.855Z,7.90
2019-04-27T12:23:11.720Z,9.23
2019-04-27T12:28:33.009Z,7.87
2019-04-27T12:33:38.398Z,7.93
2019-04-27T12:38:42.940Z,12.03
2019-04-27T12:43:47.653Z,7.83
2019-04-27T12:48:54.513Z,7.43
2019-04-27T12:54:00.090Z,8.97
2019-04-27T12:59:06.647Z,8.43
2019-04-27T13:04:11.183Z,8.43
2019-04-27T13:09:17.347Z,8.70
2019-04-27T13:14:21.912Z,10.37
2019-04-27T13:19:36.556Z,9.93
2019-04-27T13:24:41.344Z,9.70
2019-04-27T13:29:46.648Z,10.27
2019-04-27T13:34:52.376Z,8.30
2019-04-27T13:40:06.070Z,9.33
2019-04-27T13:45:16.593Z,10.20
2019-04-27T13:50:25.955Z,10.00
2019-04-27T13:55:30.713Z,10.03
2019-04-27T14:00:37.890Z,9.93
2019-04-27T14:05:42.724Z,9.77
2019-04-27T14:10:47.230Z,9.53
2019-04-27T14:15:51.935Z,10.03
2019-04-27T14:20:56.399Z,10.37
2019-04-27T14:26:00.894Z,10.03
2019-04-27T14:31:05.404Z,10.60
2019-04-27T14:36:10.068Z,9.13
2019-04-27T14:41:15.289Z,10.00
2019-04-27T14:46:20.060Z,9.00
2019-04-27T14:51:24.625Z,10.80
2019-04-27T14:56:29.228Z,9.90
2019-04-27T15:01:33.732Z,9.67
2019-04-27T15:06:38.291Z,10.60
2019-04-27T15:11:42.894Z,9.93
2019-04-27T15:16:49.633Z,10.23
2019-04-27T15:21:58.641Z,9.87
2019-04-27T15:27:02.156Z,9.57
2019-04-27T15:32:24.070Z,8.60
2019-04-27T15:37:36.026Z,9.43
2019-04-27T15:42:50.545Z,9.17
2019-04-27T15:47:54.247Z,9.67
2019-04-27T15:52:54.541Z,10.70
2019-04-27T15:57:58.987Z,8.27
2019-04-27T16:03:03.685Z,8.57
2019-04-27T16:08:15.160Z,9.17
2019-04-27T16:13:15.233Z,8.63
2019-04-27T16:18:19.999Z,8.77
2019-04-27T16:23:24.604Z,8.30
2019-04-27T16:28:29.182Z,9.57
2019-04-27T16:33:34.809Z,7.73
2019-04-27T16:38:41.103Z,6.70
2019-04-27T16:43:45.810Z,5.70
2019-04-27T16:48:51.468Z,5.87
2019-04-27T16:53:56.201Z,5.90
2019-04-27T16:59:20.893Z,6.70
2019-04-27T17:04:11.370Z,7.73
2019-04-27T17:09:14.662Z,8.20
2019-04-27T17:14:22.660Z,8.37
2019-04-27T17:19:35.778Z,7.23
2019-04-27T17:24:45.244Z,7.63
2019-04-27T17:29:50.016Z,7.03
2019-04-27T17:34:51.065Z,9.83
2019-04-27T17:39:59.517Z,7.57
2019-04-27T17:45:01.904Z,8.40
2019-04-27T17:50:09.369Z,10.77
2019-04-27T17:55:17.867Z,13.23
2019-04-27T18:00:20.627Z,10.80
2019-04-27T18:05:25.239Z,10.10
2019-04-27T18:10:29.791Z,8.80
2019-04-27T18:15:34.367Z,10.90
2019-04-27T18:20:39.036Z,37.00
2019-04-27T18:25:45.294Z,44.00
2019-04-27T18:30:54.176Z,39.88
2019-04-27T18:36:05.605Z,36.97
2019-04-27T18:41:08.043Z,34.47
2019-04-27T18:46:14.743Z,34.50
2019-04-27T18:51:26.876Z,36.90
2019-04-27T18:56:33.306Z,27.73
2019-04-27T19:01:38.634Z,31.40
2019-04-27T19:06:43.141Z,27.90
2019-04-27T19:11:56.297Z,31.70
2019-04-27T19:16:54.804Z,29.17
2019-04-27T19:21:59.394Z,32.83
2019-04-27T19:27:18.279Z,38.07
2019-04-27T19:32:17.849Z,54.83
2019-04-27T19:37:22.366Z,38.40
2019-04-27T19:42:28.597Z,36.53
2019-04-27T19:47:34.142Z,40.27
2019-04-27T19:52:38.942Z,41.60
2019-04-27T19:57:43.720Z,46.07
2019-04-27T20:02:48.643Z,49.47
2019-04-27T20:07:53.220Z,42.33
2019-04-27T20:12:57.765Z,37.90
2019-04-27T20:18:02.427Z,33.67
2019-04-27T20:23:06.925Z,39.03
2019-04-27T20:28:12.063Z,35.03
2019-04-27T20:33:16.962Z,43.47
2019-04-27T20:38:21.539Z,29.70
2019-04-27T20:43:26.153Z,26.90
2019-04-27T20:48:31.266Z,32.53
2019-04-27T20:53:46.571Z,31.30
2019-04-27T20:58:51.188Z,41.97
2019-04-27T21:03:57.397Z,31.70
2019-04-27T21:09:06.637Z,27.03
2019-04-27T21:14:12.708Z,29.53
2019-04-27T21:19:17.353Z,37.63
2019-04-27T21:24:22.807Z,44.40
2019-04-27T21:29:27.536Z,49.10
2019-04-27T21:34:32.058Z,33.00
2019-04-27T21:39:36.535Z,33.97
2019-04-27T21:44:42.056Z,41.03
2019-04-27T21:49:47.594Z,37.67
2019-04-27T21:54:53.172Z,35.20
2019-04-27T21:59:57.698Z,44.30
2019-04-27T22:05:02.471Z,53.80
2019-04-27T22:10:10.598Z,67.97
2019-04-27T22:15:15.288Z,39.20
2019-04-27T22:20:20.813Z,42.10
2019-04-27T22:25:27.030Z,51.77
2019-04-27T22:30:31.521Z,40.17
2019-04-27T22:35:35.978Z,44.80
2019-04-27T22:40:45.176Z,39.83
2019-04-27T22:45:51.049Z,37.30
2019-04-27T22:50:56.010Z,38.70
2019-04-27T22:56:13.304Z,34.47
2019-04-27T23:01:22.163Z,39.20
2019-04-27T23:06:26.609Z,41.67
2019-04-27T23:11:31.474Z,40.20
2019-04-27T23:16:37.683Z,41.80
2019-04-27T23:21:42.110Z,43.23
2019-04-27T23:26:46.563Z,34.73
2019-04-27T23:31:58.723Z,42.37
2019-04-27T23:37:03.182Z,40.30
2019-04-27T23:42:08.486Z,39.80
2019-04-27T23:47:12.924Z,37.33
2019-04-27T23:52:21.724Z,39.83
2019-04-27T23:57:27.293Z,37.67
